Time;durP1;ratioP1;P1;durP2;ratioP2;P2;SDS_P1;SDS_P2;PMS_P1;PMS_P2;Temp;Humidity;BMP_temperature;BMP_pressure;BME280_temperature;BME280_humidity;BME280_pressure;Samples;Min_cycle;Max_cycle;Signal;HPM_P1;HPM_P2
2023/10/10 00:00:04;;;;;;;9.98;3.03;;;;;;;-146.25;100.00;52396.59;2106317;28;34017;-63
2023/10/10 00:01:19;;;;;;;13.25;3.17;;;;;;;-146.25;100.00;52406.72;2107441;28;20886;-63
2023/10/10 00:02:28;;;;;;;9.82;2.65;;;;;;;-146.25;100.00;52431.06;2107171;28;20158;-64
2023/10/10 00:03:32;;;;;;;11.23;2.58;;;;;;;-146.25;100.00;52404.69;2106306;28;36156;-62
2023/10/10 00:04:35;;;;;;;12.43;3.30;;;;;;;-146.25;100.00;52414.84;2105966;28;35893;-63
2023/10/10 00:05:37;;;;;;;10.82;3.20;;;;;;;-146.25;100.00;52388.47;2107602;28;20043;-62
2023/10/10 00:06:42;;;;;;;14.63;2.95;;;;;;;-146.25;100.00;52429.03;2106385;28;32034;-63
2023/10/10 00:07:44;;;;;;;10.75;2.85;;;;;;;-146.25;100.00;52420.91;2106473;28;33436;-64
2023/10/10 00:08:50;;;;;;;11.38;3.00;;;;;;;-146.25;100.00;52374.28;2106067;28;34113;-63
2023/10/10 00:09:56;;;;;;;7.45;2.63;;;;;;;-146.25;100.00;52380.38;2106648;28;37573;-63
2023/10/10 00:10:58;;;;;;;13.75;2.70;;;;;;;-146.25;100.00;52424.97;2106517;28;34376;-62
2023/10/10 00:11:59;;;;;;;8.13;2.53;;;;;;;-146.25;100.00;52449.31;2104577;28;34775;-63
2023/10/10 00:13:07;;;;;;;15.63;2.85;;;;;;;-146.25;100.00;52414.84;2105642;28;34073;-63
2023/10/10 00:14:18;;;;;;;11.13;2.90;;;;;;;-146.25;100.00;52437.13;2103658;28;33115;-63
2023/10/10 00:15:25;;;;;;;14.10;3.50;;;;;;;-146.25;100.00;52388.47;2105189;28;35140;-63
2023/10/10 00:16:35;;;;;;;8.20;2.53;;;;;;;-146.25;100.00;52408.75;2113148;28;33153;-63
2023/10/10 00:17:37;;;;;;;;;;;;;;;-146.25;100.00;52410.78;2112760;28;20756;-63
2023/10/10 00:18:43;;;;;;;10.27;2.70;;;;;;;-146.25;100.00;52408.75;2103163;28;37665;-63
2023/10/10 00:19:45;;;;;;;13.32;3.00;;;;;;;-146.25;100.00;52392.53;2105311;28;20129;-63
2023/10/10 00:21:07;;;;;;;8.38;2.67;;;;;;;-146.25;100.00;52445.25;2104873;28;35771;-63
2023/10/10 00:22:09;;;;;;;10.20;2.72;;;;;;;-146.25;100.00;52443.22;2105376;28;34511;-63
2023/10/10 00:23:12;;;;;;;10.68;2.63;;;;;;;-146.25;100.00;52406.72;2105234;28;34220;-63
2023/10/10 00:24:14;;;;;;;12.80;2.53;;;;;;;-146.25;100.00;52380.38;2104079;28;35940;-64
2023/10/10 00:25:18;;;;;;;13.05;3.25;;;;;;;-146.25;100.00;52422.94;2105663;28;20048;-63
2023/10/10 00:26:25;;;;;;;12.63;2.85;;;;;;;-146.25;100.00;52416.84;2105360;28;31694;-63
2023/10/10 00:27:31;;;;;;;10.55;2.50;;;;;;;-146.25;100.00;52420.91;2105263;28;36377;-62
2023/10/10 00:28:39;;;;;;;12.38;2.60;;;;;;;-146.25;100.00;52412.81;2111550;28;29538;-63
2023/10/10 00:29:45;;;;;;;13.57;2.92;;;;;;;-146.25;100.00;52433.06;2112719;28;30617;-63
2023/10/10 00:30:49;;;;;;;9.65;2.42;;;;;;;-146.25;100.00;52386.44;2105916;28;20095;-63
2023/10/10 00:32:05;;;;;;;11.32;2.72;;;;;;;-146.25;100.00;52433.06;2105158;28;26165;-63
2023/10/10 00:33:17;;;;;;;13.73;3.10;;;;;;;-146.25;100.00;52418.88;2105587;28;20037;-63
2023/10/10 00:34:20;;;;;;;7.43;2.88;;;;;;;-146.25;100.00;52418.88;2105003;28;26204;-63
2023/10/10 00:35:23;;;;;;;8.75;3.00;;;;;;;-146.25;100.00;52465.53;2105720;28;20974;-63
2023/10/10 00:36:33;;;;;;;15.10;2.25;;;;;;;-146.25;100.00;52447.28;2105634;28;20614;-63
2023/10/10 00:37:37;;;;;;;8.68;2.80;;;;;;;-146.25;100.00;52439.16;2113477;28;20067;-63
2023/10/10 00:38:39;;;;;;;9.02;2.60;;;;;;;-146.25;100.00;52410.78;2112448;28;29006;-63
2023/10/10 00:39:40;;;;;;;7.55;2.63;;;;;;;-146.25;100.00;52429.03;2105191;28;32312;-63
2023/10/10 00:40:46;;;;;;;13.00;3.00;;;;;;;-146.25;100.00;52429.03;2105771;28;20037;-63
2023/10/10 00:41:52;;;;;;;13.00;2.95;;;;;;;-146.25;100.00;52429.03;2112559;28;30539;-63
2023/10/10 00:42:55;;;;;;;6.78;2.40;;;;;;;-146.25;100.00;52429.03;2112799;28;22635;-63
2023/10/10 00:44:04;;;;;;;9.05;2.90;;;;;;;-146.25;100.00;52437.13;2104657;28;28141;-63
2023/10/10 00:45:14;;;;;;;11.57;2.90;;;;;;;-146.25;100.00;52398.59;2104545;28;30590;-63
2023/10/10 00:46:16;;;;;;;8.52;2.53;;;;;;;-146.25;100.00;52402.66;2105308;28;20048;-64
2023/10/10 00:47:24;;;;;;;7.78;2.38;;;;;;;-146.25;100.00;52429.03;2106008;28;20039;-62
2023/10/10 00:48:29;;;;;;;8.15;2.45;;;;;;;-146.25;100.00;52392.53;2104571;28;33000;-63
2023/10/10 00:49:34;;;;;;;6.82;2.33;;;;;;;-146.25;100.00;52388.47;2104926;28;29160;-63
2023/10/10 00:50:37;;;;;;;9.80;2.38;;;;;;;-146.25;100.00;52388.47;2112914;28;31772;-63
2023/10/10 00:51:46;;;;;;;13.00;2.42;;;;;;;-146.25;100.00;52412.81;2112654;28;27080;-63
2023/10/10 00:53:00;;;;;;;11.25;2.22;;;;;;;-146.25;100.00;52420.91;2104993;28;25897;-63
2023/10/10 00:54:26;;;;;;;9.63;2.28;;;;;;;-146.25;100.00;52400.63;2103711;28;20369;-63
2023/10/10 00:55:33;;;;;;;7.90;2.42;;;;;;;-146.25;100.00;52437.13;2105595;28;20135;-63
2023/10/10 00:56:36;;;;;;;14.40;2.30;;;;;;;-146.25;100.00;52382.38;2105402;28;20693;-63
2023/10/10 00:57:38;;;;;;;10.15;2.30;;;;;;;-146.25;100.00;52386.44;2105902;28;25594;-63
2023/10/10 00:58:40;;;;;;;6.47;1.77;;;;;;;-146.25;100.00;52412.81;2103896;28;28686;-63
2023/10/10 00:59:45;;;;;;;6.47;1.88;;;;;;;-146.25;100.00;52439.16;2104955;28;24196;-63
2023/10/10 01:00:53;;;;;;;14.00;2.33;;;;;;;-146.25;100.00;52422.94;2110857;28;30810;-63
2023/10/10 01:01:55;;;;;;;12.05;2.13;;;;;;;-146.25;100.00;52447.28;2096584;28;20909;-63
2023/10/10 01:03:20;;;;;;;9.68;2.05;;;;;;;-146.25;100.00;52406.72;2097202;28;20037;-62
2023/10/10 01:04:48;;;;;;;9.63;2.20;;;;;;;-146.25;100.00;52429.03;2100895;28;32319;-63
2023/10/10 01:05:53;;;;;;;10.73;2.30;;;;;;;-146.25;100.00;52424.97;2096971;28;20037;-63
2023/10/10 01:06:55;;;;;;;11.15;2.40;;;;;;;-146.25;100.00;52412.81;2104637;28;26356;-63
2023/10/10 01:07:59;;;;;;;7.00;2.85;;;;;;;-146.25;100.00;52429.03;2105377;28;27092;-62
2023/10/10 01:09:16;;;;;;;9.73;2.30;;;;;;;-146.25;100.00;52443.22;2104515;28;29656;-63
2023/10/10 01:10:18;;;;;;;8.93;2.58;;;;;;;-146.25;100.00;52427.00;2105336;28;27146;-63
2023/10/10 01:11:20;;;;;;;12.55;2.60;;;;;;;-146.25;100.00;52427.00;2104182;28;26960;-63
2023/10/10 01:12:24;;;;;;;8.88;2.15;;;;;;;-146.25;100.00;52461.47;2104675;28;26325;-64
2023/10/10 01:13:30;;;;;;;12.23;2.60;;;;;;;-146.25;100.00;52400.63;2104993;28;20041;-63
2023/10/10 01:14:38;;;;;;;10.57;2.67;;;;;;;-146.25;100.00;52392.53;2105179;28;20178;-64
2023/10/10 01:15:48;;;;;;;7.85;2.50;;;;;;;-146.25;100.00;52427.00;2112659;28;28052;-64
2023/10/10 01:16:54;;;;;;;5.28;2.40;;;;;;;-146.25;100.00;52445.25;2111444;28;35020;-64
2023/10/10 01:17:57;;;;;;;8.77;2.20;;;;;;;-146.25;100.00;52433.06;2099870;28;25901;-66
2023/10/10 01:18:59;;;;;;;12.30;2.75;;;;;;;-146.25;100.00;52443.22;2096046;28;25368;-65
2023/10/10 01:20:14;;;;;;;13.15;2.97;;;;;;;-146.25;100.00;52416.84;2112338;28;29953;-64
2023/10/10 01:21:29;;;;;;;10.77;2.78;;;;;;;-146.25;100.00;52437.13;2096794;28;26353;-64
2023/10/10 01:22:46;;;;;;;8.35;2.30;;;;;;;-146.25;100.00;52433.06;2096509;28;31282;-64
2023/10/10 01:23:48;;;;;;;8.98;2.28;;;;;;;-146.25;100.00;52473.63;2096234;28;26842;-64
2023/10/10 01:24:53;;;;;;;6.43;2.00;;;;;;;-146.25;100.00;52424.97;2103578;28;28125;-65
2023/10/10 01:26:05;;;;;;;6.35;2.17;;;;;;;-146.25;100.00;52424.97;2105040;28;28362;-64
2023/10/10 01:27:15;;;;;;;8.80;2.55;;;;;;;-146.25;100.00;52441.19;2105902;28;20033;-64
2023/10/10 01:31:51;;;;;;;9.27;2.40;;;;;;;-146.25;100.00;52457.41;2104957;28;35196;-64
2023/10/10 01:32:53;;;;;;;11.68;2.90;;;;;;;-146.25;100.00;52404.69;2106049;28;21358;-64
2023/10/10 01:33:59;;;;;;;10.18;2.92;;;;;;;-146.25;100.00;52424.97;2103601;28;34657;-64
2023/10/10 01:35:01;;;;;;;8.77;2.78;;;;;;;-146.25;100.00;52386.44;2097102;28;23753;-64
2023/10/10 01:36:16;;;;;;;11.13;2.78;;;;;;;-146.25;100.00;52433.06;2105032;28;20036;-65
2023/10/10 01:37:27;;;;;;;11.48;3.05;;;;;;;-146.25;100.00;52418.88;2111565;28;29618;-65
2023/10/10 01:38:44;;;;;;;7.22;3.05;;;;;;;-146.25;100.00;52433.06;2105282;28;26124;-64
2023/10/10 01:40:17;;;;;;;9.32;3.35;;;;;;;-146.25;100.00;52435.09;2104104;28;29551;-65
2023/10/10 01:41:23;;;;;;;13.27;3.08;;;;;;;-146.25;100.00;52420.91;2097048;28;20049;-64
2023/10/10 01:42:35;;;;;;;8.43;2.83;;;;;;;-146.25;100.00;52392.53;2096344;28;28200;-63
2023/10/10 01:43:37;;;;;;;10.23;2.90;;;;;;;-146.25;100.00;52431.06;2096848;28;31515;-65
2023/10/10 01:44:43;;;;;;;9.85;3.00;;;;;;;-146.25;100.00;52412.81;2096777;28;23474;-64
2023/10/10 01:45:48;;;;;;;6.78;3.65;;;;;;;-146.25;100.00;52424.97;2096366;28;31213;-64
2023/10/10 01:46:53;;;;;;;10.95;3.15;;;;;;;-146.25;100.00;52435.09;2095337;28;29086;-64
2023/10/10 01:47:57;;;;;;;10.65;3.70;;;;;;;-146.25;100.00;52445.25;2097209;28;30315;-65
2023/10/10 01:49:01;;;;;;;11.27;3.80;;;;;;;-146.25;100.00;52420.91;2112345;28;26684;-65
2023/10/10 01:50:12;;;;;;;11.60;4.35;;;;;;;-146.25;100.00;52380.38;2103949;28;34304;-65
2023/10/10 01:51:15;;;;;;;11.65;3.90;;;;;;;-146.25;100.00;52427.00;2105578;28;30779;-64
2023/10/10 01:52:17;;;;;;;12.57;4.32;;;;;;;-146.25;100.00;52420.91;2111888;28;25975;-64
2023/10/10 01:53:19;;;;;;;10.45;4.00;;;;;;;-146.25;100.00;52398.59;2105291;28;23128;-64
2023/10/10 01:54:34;;;;;;;7.25;3.70;;;;;;;-146.25;100.00;52457.41;2112598;28;25826;-65
2023/10/10 01:55:39;;;;;;;10.95;3.90;;;;;;;-146.25;100.00;52396.59;2104737;28;25064;-64
2023/10/10 01:56:42;;;;;;;11.60;3.70;;;;;;;-146.25;100.00;52416.84;2106784;28;20056;-65
2023/10/10 01:57:44;;;;;;;9.90;3.88;;;;;;;-146.25;100.00;52374.28;2104757;28;20038;-64
2023/10/10 01:58:50;;;;;;;12.43;4.60;;;;;;;-146.25;100.00;52406.72;2096240;28;20037;-65
2023/10/10 01:59:57;;;;;;;14.32;4.63;;;;;;;-146.25;100.00;52402.66;2103467;28;21070;-64
2023/10/10 02:00:59;;;;;;;13.02;4.28;;;;;;;-146.25;100.00;52396.59;2095875;28;20178;-64
2023/10/10 02:02:09;;;;;;;13.38;4.32;;;;;;;-146.25;100.00;52382.38;2105211;28;20899;-64
2023/10/10 02:03:11;;;;;;;15.63;4.35;;;;;;;-146.25;100.00;52406.72;2111401;28;29375;-64
2023/10/10 02:04:14;;;;;;;12.93;3.88;;;;;;;-146.25;100.00;52412.81;2105201;28;28860;-64
2023/10/10 02:05:32;;;;;;;11.18;4.25;;;;;;;-146.25;100.00;52418.88;2104597;28;24616;-64
2023/10/10 02:06:40;;;;;;;14.98;4.18;;;;;;;-146.25;100.00;52437.13;2095657;28;32563;-64
2023/10/10 02:07:42;;;;;;;8.77;4.18;;;;;;;-146.25;100.00;52396.59;2096803;28;20080;-64
2023/10/10 02:08:45;;;;;;;13.88;3.88;;;;;;;-146.25;100.00;52376.31;2095514;28;28013;-64
2023/10/10 02:11:22;;;;;;;9.43;3.90;;;;;;;-146.25;100.00;52433.06;2083319;28;20118;-64
2023/10/10 02:12:26;;;;;;;14.02;4.30;;;;;;;-146.25;100.00;52441.19;2096685;28;28002;-64
2023/10/10 02:13:33;;;;;;;11.07;4.63;;;;;;;-146.25;100.00;52404.69;2096097;28;20187;-65
2023/10/10 02:14:35;;;;;;;11.48;4.07;;;;;;;-146.25;100.00;52410.78;2095911;28;25120;-65
2023/10/10 02:15:39;;;;;;;9.27;4.07;;;;;;;-146.25;100.00;52420.91;2104979;28;31236;-63
2023/10/10 02:16:41;;;;;;;13.68;4.55;;;;;;;-146.25;100.00;52410.78;2104727;28;33023;-64
2023/10/10 02:17:55;;;;;;;9.73;4.78;;;;;;;-146.25;100.00;52412.81;2103789;28;36236;-65
2023/10/10 02:18:59;;;;;;;12.02;4.45;;;;;;;-146.25;100.00;52455.38;2104635;28;22262;-64
2023/10/10 02:20:18;;;;;;;9.80;4.20;;;;;;;-146.25;100.00;52400.63;2104220;28;26574;-64
2023/10/10 02:21:42;;;;;;;12.90;4.80;;;;;;;-146.25;100.00;52406.72;2103145;28;30295;-65
2023/10/10 02:22:48;;;;;;;13.07;4.53;;;;;;;-146.25;100.00;52404.69;2104271;28;36953;-64
2023/10/10 02:23:53;;;;;;;10.63;4.07;;;;;;;-146.25;100.00;52420.91;2104759;28;25277;-64
2023/10/10 02:26:35;;;;;;;12.98;4.38;;;;;;;-146.25;100.00;52392.53;2104070;28;28951;-64
2023/10/10 02:27:54;;;;;;;9.52;3.67;;;;;;;-146.25;100.00;52437.13;2112519;28;32075;-65
2023/10/10 02:29:17;;;;;;;11.95;4.05;;;;;;;-146.25;100.00;52394.56;2110599;28;33955;-65
2023/10/10 02:30:36;;;;;;;6.43;3.30;;;;;;;-146.25;100.00;52380.38;2112060;28;33724;-64
2023/10/10 02:31:42;;;;;;;11.48;4.15;;;;;;;-146.25;100.00;52416.84;2110732;28;20964;-65
2023/10/10 02:32:46;;;;;;;11.70;4.55;;;;;;;-146.25;100.00;52437.13;2104368;28;36692;-64
2023/10/10 02:33:48;;;;;;;11.90;4.55;;;;;;;-146.25;100.00;52431.06;2104256;28;29856;-64
2023/10/10 02:35:13;;;;;;;10.20;4.70;;;;;;;-146.25;100.00;52439.16;2104500;28;20168;-64
2023/10/10 02:36:16;;;;;;;8.70;3.90;;;;;;;-146.25;100.00;52412.81;2103436;28;32105;-63
2023/10/10 02:38:40;;;;;;;12.85;4.70;;;;;;;-146.25;100.00;52437.13;2112489;28;20218;-64
2023/10/10 02:39:48;;;;;;;14.68;4.30;;;;;;;-146.25;100.00;52396.59;2104753;28;20052;-64
2023/10/10 02:40:55;;;;;;;12.65;5.10;;;;;;;-146.25;100.00;52390.50;2103837;28;32282;-64
2023/10/10 02:42:02;;;;;;;11.77;4.35;;;;;;;-146.25;100.00;52433.06;2103959;28;34852;-64
2023/10/10 02:43:33;;;;;;;10.15;5.00;;;;;;;-146.25;100.00;52418.88;2103460;28;26050;-64
2023/10/10 02:45:36;;;;;;;10.88;4.38;;;;;;;-146.25;100.00;52429.03;2112669;28;30567;-65
2023/10/10 02:46:40;;;;;;;9.43;4.20;;;;;;;-146.25;100.00;52416.84;2103573;28;35858;-64
2023/10/10 02:47:46;;;;;;;13.57;4.88;;;;;;;-146.25;100.00;52447.28;2105079;28;20052;-64
2023/10/10 02:48:53;;;;;;;9.75;4.45;;;;;;;-146.25;100.00;52396.59;2111193;28;25308;-64
2023/10/10 02:50:12;;;;;;;13.63;4.30;;;;;;;-146.25;100.00;52437.13;2103474;28;24485;-65
2023/10/10 02:51:16;;;;;;;10.05;4.13;;;;;;;-146.25;100.00;52445.25;2103552;28;23769;-64
2023/10/10 02:52:24;;;;;;;8.88;4.20;;;;;;;-146.25;100.00;52445.25;2096155;28;26221;-64
2023/10/10 02:53:32;;;;;;;12.73;4.82;;;;;;;-146.25;100.00;52447.28;2104028;28;26145;-64
2023/10/10 02:54:34;;;;;;;13.93;4.68;;;;;;;-146.25;100.00;52437.13;2105335;28;30152;-64
2023/10/10 02:55:41;;;;;;;9.88;4.15;;;;;;;-146.25;100.00;52435.09;2104328;28;20155;-64
2023/10/10 02:56:43;;;;;;;13.00;4.60;;;;;;;-146.25;100.00;52429.03;2103944;28;35674;-64
2023/10/10 02:57:47;;;;;;;12.55;4.65;;;;;;;-146.25;100.00;52388.47;2096481;28;31961;-64
2023/10/10 02:58:54;;;;;;;12.07;4.38;;;;;;;-146.25;100.00;52451.31;2104174;28;29252;-64
2023/10/10 03:00:26;;;;;;;9.02;4.25;;;;;;;-146.25;100.00;52451.31;2104728;28;20036;-64
2023/10/10 03:01:56;;;;;;;9.57;5.00;;;;;;;-146.25;100.00;52420.91;2102834;28;33459;-64
2023/10/10 03:02:58;;;;;;;14.87;5.00;;;;;;;-146.25;100.00;52410.78;2096495;28;28259;-64
2023/10/10 03:04:03;;;;;;;14.82;4.60;;;;;;;-146.25;100.00;52420.91;2095817;28;20151;-64
2023/10/10 03:06:10;;;;;;;13.32;4.97;;;;;;;-146.25;100.00;52437.13;2096160;28;20049;-64
2023/10/10 03:07:19;;;;;;;13.57;4.63;;;;;;;-146.25;100.00;52408.75;2096608;28;20048;-64
2023/10/10 03:09:42;;;;;;;14.18;5.57;;;;;;;-146.25;100.00;52441.19;2105595;28;20044;-65
2023/10/10 03:11:00;;;;;;;15.43;4.88;;;;;;;-146.25;100.00;52410.78;2112330;28;20024;-64
2023/10/10 03:12:05;;;;;;;15.73;5.60;;;;;;;-146.25;100.00;52443.22;2104346;28;23903;-65
2023/10/10 03:13:14;;;;;;;13.63;4.68;;;;;;;-146.25;100.00;52443.22;2096861;28;20104;-64
2023/10/10 03:14:25;;;;;;;12.50;4.60;;;;;;;-146.25;100.00;52394.56;2103768;28;20803;-64
2023/10/10 03:15:28;;;;;;;16.17;5.10;;;;;;;-146.25;100.00;52441.19;2104278;28;20032;-64
2023/10/10 03:16:41;;;;;;;17.80;5.13;;;;;;;-146.25;100.00;52416.84;2095921;28;20175;-64
2023/10/10 03:17:48;;;;;;;12.48;4.53;;;;;;;-146.25;100.00;52453.34;2097456;28;20037;-64
2023/10/10 03:20:13;;;;;;;13.25;4.72;;;;;;;-146.25;100.00;52453.34;2109922;28;28259;-65
2023/10/10 03:21:18;;;;;;;10.73;4.63;;;;;;;-146.25;100.00;52443.22;2105286;28;20091;-64
2023/10/10 03:22:30;;;;;;;9.35;4.45;;;;;;;-146.25;100.00;52431.06;2112308;28;20044;-64
2023/10/10 03:23:41;;;;;;;11.07;4.53;;;;;;;-146.25;100.00;52439.16;2111671;28;24663;-64
2023/10/10 03:26:06;;;;;;;10.93;4.50;;;;;;;-146.25;100.00;52416.84;2097664;28;20881;-64
2023/10/10 03:29:49;;;;;;;8.43;4.13;;;;;;;-146.25;100.00;52443.22;2095785;28;20092;-64
2023/10/10 03:32:26;;;;;;;16.13;4.78;;;;;;;-146.25;100.00;52497.97;2103728;28;20032;-64
2023/10/10 03:33:44;;;;;;;16.85;5.50;;;;;;;-146.25;100.00;52412.81;2104195;28;32682;-64
2023/10/10 03:39:48;;;;;;;11.73;4.80;;;;;;;-146.25;100.00;52420.91;2111676;28;20037;-64
2023/10/10 05:23:53;;;;;;;12.57;8.00;;;;;;;-146.25;100.00;52443.22;2105234;28;38590;-64
2023/10/10 05:24:56;;;;;;;20.13;8.63;;;;;;;-146.25;100.00;52453.34;2103733;28;34699;-64
2023/10/10 05:25:59;;;;;;;14.85;8.32;;;;;;;-146.25;100.00;52424.97;2105130;28;37959;-64
2023/10/10 05:27:02;;;;;;;14.02;8.50;;;;;;;-146.25;100.00;52410.78;2104426;28;36625;-65
2023/10/10 05:28:04;;;;;;;15.52;9.07;;;;;;;-146.25;100.00;52431.06;2105273;28;35043;-64
2023/10/10 05:29:07;;;;;;;12.52;8.45;;;;;;;-146.25;100.00;52437.13;2104520;28;38862;-64
2023/10/10 05:30:23;;;;;;;15.52;9.18;;;;;;;-146.25;100.00;52473.63;2104124;28;34667;-65
2023/10/10 05:31:27;;;;;;;12.85;7.82;;;;;;;-146.25;100.00;52433.06;2105339;28;20937;-64
2023/10/10 05:32:32;;;;;;;14.68;9.40;;;;;;;-146.25;100.00;52429.03;2104892;28;36731;-65
2023/10/10 05:33:36;;;;;;;18.67;10.48;;;;;;;-146.25;100.00;52392.53;2104869;28;34922;-64
2023/10/10 05:34:40;;;;;;;13.05;8.73;;;;;;;-146.25;100.00;52412.81;2105614;28;38432;-64
2023/10/10 05:35:49;;;;;;;12.02;9.23;;;;;;;-146.25;100.00;52424.97;2103677;28;25549;-64
2023/10/10 05:36:54;;;;;;;17.60;9.63;;;;;;;-146.25;100.00;52408.75;2104899;28;33935;-64
2023/10/10 05:37:57;;;;;;;16.80;10.02;;;;;;;-146.25;100.00;52418.88;2104488;28;37097;-64
2023/10/10 05:38:59;;;;;;;12.63;9.45;;;;;;;-146.25;100.00;52453.34;2105777;28;20033;-64
2023/10/10 05:40:06;;;;;;;18.90;9.93;;;;;;;-146.25;100.00;52424.97;2105752;28;20040;-64
2023/10/10 05:41:10;;;;;;;15.35;9.88;;;;;;;-146.25;100.00;52394.56;2105025;28;20960;-65
2023/10/10 05:42:20;;;;;;;18.80;10.27;;;;;;;-146.25;100.00;52451.31;2096382;28;33337;-64
2023/10/10 05:43:33;;;;;;;18.60;9.68;;;;;;;-146.25;100.00;52412.81;2097115;28;20037;-64
2023/10/10 05:44:38;;;;;;;15.43;10.20;;;;;;;-146.25;100.00;52416.84;2097325;28;20037;-64
2023/10/10 05:45:45;;;;;;;15.63;10.60;;;;;;;-146.25;100.00;52392.53;2095839;28;36926;-64
2023/10/10 05:46:47;;;;;;;19.73;10.15;;;;;;;-146.25;100.00;52437.13;2096414;28;29395;-64
2023/10/10 05:47:51;;;;;;;20.30;11.10;;;;;;;-146.25;100.00;52424.97;2100878;28;34291;-64
2023/10/10 05:48:56;;;;;;;17.15;10.60;;;;;;;-146.25;100.00;52433.06;2104947;28;37219;-64
2023/10/10 05:49:58;;;;;;;19.48;11.18;;;;;;;-146.25;100.00;52424.97;2105405;28;20174;-64
2023/10/10 05:51:00;;;;;;;21.20;10.93;;;;;;;-146.25;100.00;52422.94;2105197;28;30399;-64
2023/10/10 05:52:02;;;;;;;16.15;9.52;;;;;;;-146.25;100.00;52465.53;2104311;28;34770;-64
2023/10/10 05:53:06;;;;;;;25.27;13.63;;;;;;;-146.25;100.00;52414.84;2103931;28;33826;-64
2023/10/10 05:54:10;;;;;;;20.35;12.13;;;;;;;-146.25;100.00;52433.06;2104330;28;37949;-64
2023/10/10 05:55:12;;;;;;;20.77;11.45;;;;;;;-146.25;100.00;52453.34;2105362;28;20033;-65
2023/10/10 05:56:18;;;;;;;15.82;11.15;;;;;;;-146.25;100.00;52433.06;2104197;28;39460;-65
2023/10/10 05:57:21;;;;;;;16.42;10.63;;;;;;;-146.25;100.00;52467.56;2105006;28;35333;-65
2023/10/10 05:58:26;;;;;;;22.00;10.23;;;;;;;-146.25;100.00;52435.09;2104627;28;34091;-65
2023/10/10 05:59:28;;;;;;;17.35;10.25;;;;;;;-146.25;100.00;52431.06;2103770;28;39070;-65
2023/10/10 06:00:36;;;;;;;19.95;11.25;;;;;;;-146.25;100.00;52443.22;2105193;28;20127;-65
2023/10/10 06:01:38;;;;;;;17.13;10.30;;;;;;;-146.25;100.00;52443.22;2105286;28;35538;-65
2023/10/10 06:02:47;;;;;;;20.48;11.30;;;;;;;-146.25;100.00;52414.84;2104409;28;34245;-65
2023/10/10 06:03:51;;;;;;;19.65;11.02;;;;;;;-146.25;100.00;52427.00;2105045;28;36782;-64
2023/10/10 06:04:54;;;;;;;15.90;10.75;;;;;;;-146.25;100.00;52459.44;2105181;28;20996;-64
2023/10/10 06:05:56;;;;;;;18.80;10.50;;;;;;;-146.25;100.00;52453.34;2104962;28;20056;-64
2023/10/10 06:06:59;;;;;;;17.70;11.40;;;;;;;-146.25;100.00;52449.31;2104665;28;39800;-64
2023/10/10 06:08:01;;;;;;;22.27;10.65;;;;;;;-146.25;100.00;52414.84;2104748;28;35136;-64
2023/10/10 06:09:05;;;;;;;16.10;10.45;;;;;;;-146.25;100.00;52469.56;2104654;28;29427;-64
2023/10/10 06:10:14;;;;;;;22.25;11.13;;;;;;;-146.25;100.00;52410.78;2103686;28;38887;-64
2023/10/10 06:11:16;;;;;;;18.42;11.00;;;;;;;-146.25;100.00;52396.59;2104504;28;20125;-64
2023/10/10 06:12:19;;;;;;;18.55;11.38;;;;;;;-146.25;100.00;52396.59;2104884;28;37865;-64
2023/10/10 06:13:20;;;;;;;19.27;11.05;;;;;;;-146.25;100.00;52445.25;2104335;28;36144;-64
2023/10/10 06:14:22;;;;;;;18.63;10.50;;;;;;;-146.25;100.00;52435.09;2103736;28;32043;-64
2023/10/10 06:15:28;;;;;;;18.40;10.95;;;;;;;-146.25;100.00;52441.19;2104507;28;35157;-63
2023/10/10 06:16:30;;;;;;;20.48;10.82;;;;;;;-146.25;100.00;52453.34;2104560;28;33303;-63
2023/10/10 06:17:33;;;;;;;14.93;10.27;;;;;;;-146.25;100.00;52412.81;2103382;28;34203;-63
2023/10/10 06:18:35;;;;;;;15.02;10.18;;;;;;;-146.25;100.00;52447.28;2103733;28;39969;-64
2023/10/10 06:19:37;;;;;;;18.75;10.73;;;;;;;-146.25;100.00;52420.91;2104903;28;20032;-64
2023/10/10 06:20:42;;;;;;;15.45;10.45;;;;;;;-146.25;100.00;52416.84;2104209;28;36298;-64
2023/10/10 06:21:52;;;;;;;17.15;9.63;;;;;;;-146.25;100.00;52445.25;2105318;28;20069;-64
2023/10/10 06:22:54;;;;;;;17.38;9.38;;;;;;;-146.25;100.00;52439.16;2104654;28;34564;-64
2023/10/10 06:23:57;;;;;;;15.77;9.98;;;;;;;-146.25;100.00;52437.13;2104333;28;36609;-64
2023/10/10 06:24:58;;;;;;;19.08;10.00;;;;;;;-146.25;100.00;52441.19;2104168;28;20095;-65
2023/10/10 06:26:04;;;;;;;18.23;10.07;;;;;;;-146.25;100.00;52396.59;2102461;28;37359;-65
2023/10/10 06:27:09;;;;;;;14.27;9.48;;;;;;;-146.25;100.00;52424.97;2104265;28;39954;-64
2023/10/10 06:28:23;;;;;;;16.83;9.88;;;;;;;-146.25;100.00;52465.53;2101977;28;20044;-64
2023/10/10 06:29:24;;;;;;;13.35;8.90;;;;;;;-146.25;100.00;52408.75;2104248;28;38127;-64
2023/10/10 06:30:26;;;;;;;21.42;10.00;;;;;;;-146.25;100.00;52427.00;2104416;28;20854;-64
2023/10/10 06:31:33;;;;;;;16.52;10.57;;;;;;;-146.25;100.00;52445.25;2104734;28;32411;-64
2023/10/10 06:32:36;;;;;;;16.60;10.38;;;;;;;-146.25;100.00;52445.25;2104648;28;37636;-63
2023/10/10 06:33:40;;;;;;;15.00;10.00;;;;;;;-146.25;100.00;52439.16;2104341;28;35839;-64
2023/10/10 06:34:49;;;;;;;14.13;9.02;;;;;;;-146.25;100.00;52420.91;2104649;28;35560;-64
2023/10/10 06:35:52;;;;;;;18.75;10.68;;;;;;;-146.25;100.00;52465.53;2104782;28;20084;-64
2023/10/10 06:36:54;;;;;;;17.77;10.23;;;;;;;-146.25;100.00;52477.69;2103587;28;37123;-64
2023/10/10 06:37:58;;;;;;;16.35;10.18;;;;;;;-146.25;100.00;52402.66;2103164;28;38721;-64
2023/10/10 06:39:21;;;;;;;21.80;10.30;;;;;;;-146.25;100.00;52443.22;2103884;28;32644;-64
2023/10/10 06:40:25;;;;;;;15.18;9.10;;;;;;;-146.25;100.00;52396.59;2103942;28;40723;-64
2023/10/10 06:41:28;;;;;;;13.68;9.70;;;;;;;-146.25;100.00;52429.03;2105363;28;20181;-64
2023/10/10 06:42:30;;;;;;;16.02;10.18;;;;;;;-146.25;100.00;52431.06;2103261;28;37313;-64
2023/10/10 06:43:33;;;;;;;13.02;10.75;;;;;;;-146.25;100.00;52400.63;2104733;28;20976;-65
2023/10/10 06:44:35;;;;;;;13.68;9.57;;;;;;;-146.25;100.00;52437.13;2104523;28;31758;-64
2023/10/10 06:45:38;;;;;;;17.02;10.88;;;;;;;-146.25;100.00;52410.78;2104246;28;39555;-64
2023/10/10 06:46:47;;;;;;;17.95;10.63;;;;;;;-146.25;100.00;52433.06;2104207;28;36636;-64
2023/10/10 06:47:51;;;;;;;17.75;9.77;;;;;;;-146.25;100.00;52429.03;2104853;28;30905;-64
2023/10/10 06:49:04;;;;;;;13.07;9.50;;;;;;;-146.25;100.00;52408.75;2103035;28;39597;-65
2023/10/10 06:50:12;;;;;;;15.07;10.38;;;;;;;-146.25;100.00;52433.06;2104257;28;30259;-64
2023/10/10 06:51:22;;;;;;;13.45;9.82;;;;;;;-146.25;100.00;52437.13;2105136;28;36756;-63
2023/10/10 06:52:23;;;;;;;12.82;9.43;;;;;;;-146.25;100.00;52439.16;2104632;28;35059;-64
2023/10/10 06:53:34;;;;;;;14.50;9.77;;;;;;;-146.25;100.00;52418.88;2104988;28;33212;-65
2023/10/10 06:54:44;;;;;;;13.07;9.68;;;;;;;-146.25;100.00;52408.75;2103254;28;38511;-65
2023/10/10 06:55:47;;;;;;;15.40;9.38;;;;;;;-146.25;100.00;52390.50;2103714;28;32105;-64
2023/10/10 06:57:04;;;;;;;12.27;9.55;;;;;;;-146.25;100.00;52431.06;2098516;28;37031;-64
2023/10/10 06:58:07;;;;;;;14.02;9.07;;;;;;;-146.25;100.00;52445.25;2098425;28;21033;-64
2023/10/10 06:59:20;;;;;;;19.45;9.80;;;;;;;-146.25;100.00;52431.06;2104408;28;32958;-64
2023/10/10 07:00:28;;;;;;;14.90;9.73;;;;;;;-146.25;100.00;52424.97;2103416;28;36268;-65
2023/10/10 07:01:30;;;;;;;12.63;9.57;;;;;;;-146.25;100.00;52402.66;2099141;28;36342;-65
2023/10/10 07:02:39;;;;;;;16.50;9.68;;;;;;;-146.25;100.00;52400.63;2095306;28;34917;-64
2023/10/10 07:03:46;;;;;;;14.43;9.55;;;;;;;-146.25;100.00;52424.97;2095983;28;34983;-64
2023/10/10 07:04:52;;;;;;;13.35;10.23;;;;;;;-146.25;100.00;52418.88;2096159;28;33745;-65
2023/10/10 07:05:54;;;;;;;10.95;8.95;;;;;;;-146.25;100.00;52424.97;2104002;28;36502;-64